Time;durP1;ratioP1;P1;durP2;ratioP2;P2;SDS_P1;SDS_P2;PMS_P1;PMS_P2;Temp;Humidity;BMP_temperature;BMP_pressure;BME280_temperature;BME280_humidity;BME280_pressure;Samples;Min_cycle;Max_cycle;Signal;HPM_P1;HPM_P2
2023/09/01 00:00:15;;;;;;;14.60;12.48;;;11.40;99.90;;;;;;5074849;28;20181;-79
2023/09/01 00:02:41;;;;;;;14.60;10.75;;;11.40;99.90;;;;;;5074826;28;20198;-79
2023/09/01 00:05:08;;;;;;;14.57;13.10;;;11.40;99.90;;;;;;5075088;28;20323;-79
2023/09/01 00:07:34;;;;;;;14.13;11.95;;;11.40;99.90;;;;;;5085481;28;20200;-80
2023/09/01 00:10:00;;;;;;;16.90;12.40;;;11.30;99.90;;;;;;5088895;28;20630;-79
2023/09/01 00:12:26;;;;;;;13.82;12.43;;;11.30;99.90;;;;;;5089518;28;20194;-79
2023/09/01 00:14:52;;;;;;;12.35;11.05;;;11.30;99.90;;;;;;5088730;28;20180;-79
2023/09/01 00:17:18;;;;;;;11.18;9.95;;;11.30;99.90;;;;;;5088744;28;20192;-79
2023/09/01 00:19:44;;;;;;;11.77;10.25;;;11.30;99.90;;;;;;5087938;28;20181;-79
2023/09/01 00:22:10;;;;;;;14.82;11.32;;;11.30;99.90;;;;;;5087424;28;20205;-79
2023/09/01 00:24:37;;;;;;;15.38;11.77;;;11.30;99.90;;;;;;5087408;28;20204;-80
2023/09/01 00:27:03;;;;;;;14.18;11.32;;;11.30;99.90;;;;;;5087356;28;20213;-79
2023/09/01 00:29:28;;;;;;;13.40;12.00;;;11.20;99.90;;;;;;5088631;28;20174;-79
2023/09/01 00:31:54;;;;;;;12.85;10.65;;;11.20;99.90;;;;;;5086703;28;20177;-79
2023/09/01 00:34:20;;;;;;;12.52;10.85;;;11.20;99.90;;;;;;5088096;28;20174;-79
2023/09/01 00:36:49;;;;;;;13.00;11.63;;;11.20;99.90;;;;;;5087435;28;20201;-79
2023/09/01 00:39:14;;;;;;;14.27;12.07;;;11.20;99.90;;;;;;5087218;28;20656;-80
2023/09/01 00:41:40;;;;;;;12.70;11.32;;;11.20;99.90;;;;;;5087432;28;20181;-80
2023/09/01 00:44:08;;;;;;;13.40;12.00;;;11.20;99.90;;;;;;5088541;28;20173;-79
2023/09/01 00:46:34;;;;;;;12.50;10.85;;;11.10;99.90;;;;;;5087092;28;20227;-79
2023/09/01 00:49:00;;;;;;;11.75;10.25;;;11.10;99.90;;;;;;5087323;28;20173;-80
2023/09/01 00:51:28;;;;;;;10.90;9.80;;;11.10;99.90;;;;;;5088462;28;20170;-79
2023/09/01 00:53:53;;;;;;;12.23;10.07;;;11.00;99.90;;;;;;5086872;28;20198;-80
2023/09/01 00:56:19;;;;;;;10.70;9.60;;;11.00;99.90;;;;;;5086109;28;20192;-79
2023/09/01 00:58:45;;;;;;;26.83;11.10;;;11.00;99.90;;;;;;5087766;28;20177;-79
2023/09/01 01:01:11;;;;;;;14.70;10.50;;;10.90;99.90;;;;;;5088528;28;20244;-79
2023/09/01 01:03:38;;;;;;;16.08;11.45;;;10.90;99.90;;;;;;5088225;28;20213;-79
2023/09/01 01:06:34;;;;;;;20.33;10.13;;;11.00;99.90;;;;;;5093004;28;20217;-79
2023/09/01 01:09:29;;;;;;;11.90;9.55;;;10.90;99.90;;;;;;5080976;28;20264;-80
2023/09/01 01:12:27;;;;;;;12.02;10.55;;;10.80;99.90;;;;;;5079370;28;20185;-79
2023/09/01 01:14:55;;;;;;;19.10;10.32;;;10.80;99.90;;;;;;5086063;28;20185;-79
2023/09/01 01:17:21;;;;;;;12.52;10.15;;;10.80;99.90;;;;;;5086667;28;20204;-79
2023/09/01 01:19:54;;;;;;;16.08;11.48;;;10.80;99.90;;;;;;5086642;28;20174;-80
2023/09/01 01:22:35;;;;;;;18.60;12.07;;;10.90;99.90;;;;;;5087555;28;20253;-80
2023/09/01 01:25:04;;;;;;;13.70;11.70;;;10.90;99.90;;;;;;5086088;28;20244;-79
2023/09/01 01:27:30;;;;;;;16.90;12.13;;;10.90;99.90;;;;;;5086816;28;20174;-79
2023/09/01 01:29:56;;;;;;;15.52;11.27;;;10.90;99.90;;;;;;5087418;28;20162;-79
2023/09/01 01:32:22;;;;;;;14.88;11.00;;;10.80;99.90;;;;;;5089785;28;20670;-79
2023/09/01 01:35:16;;;;;;;13.00;11.63;;;10.80;99.90;;;;;;5089713;28;20193;-80
2023/09/01 01:37:52;;;;;;;13.07;11.70;;;10.80;99.90;;;;;;5088869;28;20200;-79
2023/09/01 01:40:22;;;;;;;25.30;14.13;;;10.80;99.90;;;;;;5086808;28;20182;-79
2023/09/01 01:42:51;;;;;;;16.65;13.45;;;10.80;99.90;;;;;;5087117;28;20197;-79
2023/09/01 01:45:21;;;;;;;16.35;13.32;;;10.80;99.90;;;;;;5086922;28;20206;-80
2023/09/01 01:47:51;;;;;;;19.67;12.45;;;10.70;99.90;;;;;;5088835;28;20245;-79
2023/09/01 01:50:17;;;;;;;15.45;13.18;;;10.70;99.90;;;;;;5086995;28;20173;-79
2023/09/01 01:52:43;;;;;;;20.52;13.35;;;10.70;99.90;;;;;;5089390;28;20206;-79
2023/09/01 01:55:09;;;;;;;14.80;12.50;;;10.70;99.90;;;;;;5088470;28;20700;-80
2023/09/01 01:57:36;;;;;;;14.05;12.48;;;10.70;99.90;;;;;;5090201;28;20231;-79
2023/09/01 02:00:04;;;;;;;13.52;11.63;;;10.70;99.90;;;;;;5089619;28;20178;-80
2023/09/01 02:02:30;;;;;;;14.25;12.75;;;10.70;99.90;;;;;;5091124;28;20219;-80
2023/09/01 02:04:56;;;;;;;13.23;11.88;;;10.70;99.90;;;;;;5091673;28;20196;-79
2023/09/01 02:07:21;;;;;;;14.05;11.95;;;10.70;99.90;;;;;;5090736;28;20162;-79
2023/09/01 02:09:47;;;;;;;14.63;11.82;;;10.70;99.90;;;;;;5091283;28;20318;-80
2023/09/01 02:12:13;;;;;;;13.65;11.93;;;10.70;99.90;;;;;;5090421;28;20215;-80
2023/09/01 02:14:38;;;;;;;12.20;10.52;;;10.70;99.90;;;;;;5091684;28;20173;-80
2023/09/01 02:17:05;;;;;;;14.15;11.02;;;10.60;99.90;;;;;;5096985;28;20181;-79
2023/09/01 02:19:31;;;;;;;11.75;10.60;;;10.60;99.90;;;;;;5082180;28;20553;-79
2023/09/01 02:21:56;;;;;;;12.30;11.05;;;10.50;99.90;;;;;;5080597;28;20200;-79
2023/09/01 02:24:22;;;;;;;11.48;10.38;;;10.40;99.90;;;;;;5082551;28;20178;-79
2023/09/01 02:26:48;;;;;;;11.48;10.38;;;10.40;99.90;;;;;;5082108;28;20221;-79
2023/09/01 02:29:14;;;;;;;13.40;12.00;;;10.40;99.90;;;;;;5082995;28;20184;-79
2023/09/01 02:31:39;;;;;;;12.35;11.13;;;10.40;99.90;;;;;;5086041;28;20194;-79
2023/09/01 02:34:05;;;;;;;15.38;10.80;;;10.30;99.90;;;;;;5085821;28;20181;-79
2023/09/01 02:36:35;;;;;;;12.07;10.75;;;10.20;99.90;;;;;;5085040;28;20178;-80
2023/09/01 02:39:02;;;;;;;11.85;10.65;;;10.20;99.90;;;;;;5087168;28;20190;-80
2023/09/01 02:41:28;;;;;;;13.38;9.57;;;10.20;99.90;;;;;;5087273;28;20178;-79
2023/09/01 02:43:54;;;;;;;10.82;9.73;;;10.10;99.90;;;;;;5088580;28;20200;-80
2023/09/01 02:46:20;;;;;;;12.10;10.82;;;10.20;99.90;;;;;;5084589;28;20229;-79
2023/09/01 02:48:46;;;;;;;11.40;10.20;;;10.20;99.90;;;;;;5086459;28;20578;-79
2023/09/01 02:51:12;;;;;;;10.23;9.23;;;10.20;99.90;;;;;;5090873;28;20170;-79
2023/09/01 02:53:38;;;;;;;11.10;9.45;;;10.20;99.90;;;;;;5090892;28;20202;-79
2023/09/01 02:56:05;;;;;;;9.50;8.60;;;10.20;99.90;;;;;;5089357;28;20216;-79
2023/09/01 02:58:31;;;;;;;9.27;8.25;;;10.20;99.90;;;;;;5089004;28;20714;-79
2023/09/01 03:00:57;;;;;;;11.48;9.30;;;10.20;99.90;;;;;;5089959;28;20181;-79
2023/09/01 03:03:23;;;;;;;12.55;8.98;;;10.20;99.90;;;;;;5091517;28;20204;-79
2023/09/01 03:05:50;;;;;;;9.75;8.75;;;10.10;99.90;;;;;;5089364;28;20205;-79
2023/09/01 03:08:22;;;;;;;10.38;9.38;;;10.20;99.90;;;;;;5090611;28;20185;-79
2023/09/01 03:10:48;;;;;;;9.98;8.98;;;10.10;99.90;;;;;;5081587;28;20587;-79
2023/09/01 03:13:14;;;;;;;14.25;9.32;;;10.10;99.90;;;;;;5076227;28;20277;-79
2023/09/01 03:15:42;;;;;;;10.77;9.77;;;10.20;99.90;;;;;;5074956;28;20181;-79
2023/09/01 03:18:10;;;;;;;11.00;9.90;;;10.20;99.90;;;;;;5074968;28;20182;-79
2023/09/01 03:20:37;;;;;;;12.77;11.40;;;10.20;99.90;;;;;;5075184;28;20722;-79
2023/09/01 03:23:03;;;;;;;17.65;11.50;;;10.20;99.90;;;;;;5075909;28;20217;-79
2023/09/01 03:25:30;;;;;;;14.30;12.32;;;10.20;99.90;;;;;;5069485;28;20209;-79
2023/09/01 03:27:55;;;;;;;14.95;11.57;;;10.20;99.90;;;;;;5056831;28;20162;-79
2023/09/01 03:30:21;;;;;;;15.80;11.32;;;10.20;99.90;;;;;;5065272;28;20210;-79
2023/09/01 03:32:47;;;;;;;12.50;10.88;;;10.20;99.90;;;;;;5062817;28;20190;-79
2023/09/01 03:35:13;;;;;;;12.70;10.93;;;10.20;99.90;;;;;;5059906;28;20363;-78
2023/09/01 03:37:39;;;;;;;12.07;10.75;;;10.30;99.90;;;;;;5065873;28;20178;-78
2023/09/01 03:40:09;;;;;;;12.18;10.98;;;10.30;99.90;;;;;;5060542;28;20182;-80
2023/09/01 03:42:35;;;;;;;13.95;10.93;;;10.30;99.90;;;;;;5056161;28;20200;-79
2023/09/01 03:45:02;;;;;;;11.70;10.50;;;10.40;99.90;;;;;;5054114;28;20546;-79
2023/09/01 03:47:28;;;;;;;12.18;10.57;;;10.40;99.90;;;;;;5054369;28;20226;-79
2023/09/01 03:49:53;;;;;;;13.80;11.00;;;10.50;99.90;;;;;;5055762;28;20650;-82
2023/09/01 03:52:19;;;;;;;16.23;11.13;;;10.50;99.90;;;;;;5056665;28;20201;-80
2023/09/01 03:54:45;;;;;;;12.05;10.57;;;10.50;99.90;;;;;;5055166;28;20185;-81
2023/09/01 03:57:11;;;;;;;14.43;11.07;;;10.50;99.90;;;;;;5055234;28;20254;-80
2023/09/01 03:59:36;;;;;;;14.25;11.82;;;10.50;99.90;;;;;;5055698;28;20178;-80
2023/09/01 04:02:04;;;;;;;12.35;11.05;;;10.60;99.90;;;;;;5056213;28;20195;-81
2023/09/01 04:04:30;;;;;;;12.57;10.95;;;10.60;99.90;;;;;;5057674;28;20190;-81
2023/09/01 04:06:55;;;;;;;12.73;10.93;;;10.70;99.90;;;;;;5057328;28;20182;-81
2023/09/01 04:09:21;;;;;;;17.13;11.00;;;10.60;99.90;;;;;;5054796;28;20523;-81
2023/09/01 04:11:47;;;;;;;12.85;10.55;;;10.70;99.90;;;;;;5054909;28;20320;-81
2023/09/01 04:14:13;;;;;;;12.50;10.35;;;10.70;99.90;;;;;;5055932;28;20181;-81
2023/09/01 04:16:40;;;;;;;12.55;10.80;;;10.70;99.90;;;;;;5056322;28;20171;-81
2023/09/01 04:19:05;;;;;;;14.68;11.80;;;10.70;99.90;;;;;;5054408;28;20179;-81
2023/09/01 04:21:31;;;;;;;14.48;11.40;;;10.70;99.90;;;;;;5053480;28;20269;-81
2023/09/01 04:23:58;;;;;;;12.90;10.90;;;10.70;99.90;;;;;;5053550;28;20229;-80
2023/09/01 04:26:24;;;;;;;14.15;11.32;;;10.70;99.90;;;;;;5053012;28;20620;-81
2023/09/01 04:28:50;;;;;;;15.23;11.23;;;10.70;99.90;;;;;;5053800;28;20189;-81
2023/09/01 04:31:30;;;;;;;12.93;11.27;;;10.80;99.90;;;;;;5052974;28;20646;-79
2023/09/01 04:33:56;;;;;;;15.90;11.38;;;10.80;99.90;;;;;;5053900;28;20194;-79
2023/09/01 04:36:22;;;;;;;15.38;11.98;;;10.80;99.90;;;;;;5055105;28;20561;-79
2023/09/01 04:38:49;;;;;;;14.23;11.57;;;10.80;99.90;;;;;;5054996;28;20185;-79
2023/09/01 04:41:15;;;;;;;13.77;12.05;;;10.80;99.90;;;;;;5053226;28;20182;-79
2023/09/01 04:43:41;;;;;;;17.92;11.68;;;10.80;99.90;;;;;;5053089;28;20206;-79
2023/09/01 04:46:06;;;;;;;12.98;11.32;;;10.80;99.90;;;;;;5054411;28;20206;-78
2023/09/01 04:48:34;;;;;;;19.88;11.52;;;10.80;99.90;;;;;;5054144;28;20654;-79
2023/09/01 04:51:02;;;;;;;13.48;12.05;;;10.80;99.90;;;;;;5054457;28;20221;-79
2023/09/01 04:53:32;;;;;;;17.10;12.23;;;10.80;99.90;;;;;;5052637;28;20190;-79
2023/09/01 04:55:57;;;;;;;13.88;12.02;;;10.70;99.90;;;;;;5061841;28;20210;-78
2023/09/01 04:58:23;;;;;;;13.55;11.57;;;10.80;99.90;;;;;;5072299;28;20782;-79
2023/09/01 05:00:53;;;;;;;17.73;13.00;;;10.80;99.90;;;;;;5072332;28;20672;-79
2023/09/01 05:03:19;;;;;;;15.85;12.95;;;10.70;99.90;;;;;;5072010;28;20205;-79
2023/09/01 05:05:47;;;;;;;14.88;12.35;;;10.70;99.90;;;;;;5072317;28;20206;-79
2023/09/01 05:08:12;;;;;;;17.33;13.07;;;10.80;99.90;;;;;;5072063;28;20174;-78
2023/09/01 05:10:38;;;;;;;20.25;14.35;;;10.90;99.90;;;;;;5071734;28;20174;-79
2023/09/01 05:13:04;;;;;;;17.13;12.10;;;11.00;99.90;;;;;;5071979;28;20293;-79
2023/09/01 05:15:30;;;;;;;17.63;13.48;;;11.10;99.90;;;;;;5072281;28;20178;-79
2023/09/01 05:17:56;;;;;;;18.10;13.13;;;11.00;99.90;;;;;;5073511;28;20218;-79
2023/09/01 05:20:22;;;;;;;15.07;11.63;;;11.10;99.90;;;;;;5072018;28;20276;-78
2023/09/01 05:22:48;;;;;;;17.90;12.68;;;11.20;99.90;;;;;;5071870;28;20332;-79
2023/09/01 05:25:14;;;;;;;15.55;12.07;;;11.30;99.90;;;;;;5071735;28;20213;-79
2023/09/01 05:27:40;;;;;;;13.10;11.70;;;11.30;99.90;;;;;;5072015;28;20193;-79
2023/09/01 05:30:06;;;;;;;16.40;12.27;;;11.40;99.90;;;;;;5074591;28;20173;-79
2023/09/01 05:32:34;;;;;;;14.63;12.40;;;11.40;99.90;;;;;;5075193;28;20271;-79
2023/09/01 05:35:00;;;;;;;15.20;12.90;;;11.40;99.90;;;;;;5077103;28;20174;-79
2023/09/01 05:37:25;;;;;;;15.57;11.65;;;11.40;99.90;;;;;;5075390;28;20272;-79
2023/09/01 05:39:51;;;;;;;18.00;13.38;;;11.50;99.90;;;;;;5075644;28;20273;-79
2023/09/01 05:42:17;;;;;;;15.30;12.40;;;11.50;99.90;;;;;;5075170;28;20197;-79
2023/09/01 05:44:43;;;;;;;16.52;12.57;;;11.50;99.90;;;;;;5075562;28;20196;-79
2023/09/01 05:47:08;;;;;;;18.90;12.50;;;11.50;99.90;;;;;;5075373;28;20546;-79
2023/09/01 05:49:34;;;;;;;15.93;12.25;;;11.60;99.90;;;;;;5075547;28;20173;-78
2023/09/01 05:52:01;;;;;;;13.70;11.70;;;11.60;99.90;;;;;;5075286;28;20212;-79
2023/09/01 05:54:27;;;;;;;15.07;12.02;;;11.70;99.90;;;;;;5075197;28;20260;-79
2023/09/01 05:56:54;;;;;;;15.98;12.80;;;11.80;99.90;;;;;;5075105;28;20288;-79
2023/09/01 05:59:20;;;;;;;16.30;11.52;;;11.80;99.90;;;;;;5075379;28;20200;-79
2023/09/01 06:01:46;;;;;;;14.38;11.55;;;11.90;99.90;;;;;;5075194;28;20189;-79
2023/09/01 06:04:12;;;;;;;14.38;11.73;;;12.00;99.90;;;;;;5075294;28;20178;-79
2023/09/01 06:06:38;;;;;;;12.52;10.02;;;12.10;99.90;;;;;;5075453;28;20197;-79
2023/09/01 06:09:07;;;;;;;14.55;10.93;;;12.20;99.90;;;;;;5076928;28;20181;-79
2023/09/01 06:11:35;;;;;;;14.98;9.80;;;12.20;99.90;;;;;;5075097;28;20201;-79
2023/09/01 06:14:01;;;;;;;13.88;10.75;;;12.30;99.90;;;;;;5074933;28;20560;-79
2023/09/01 06:16:27;;;;;;;16.55;11.25;;;12.40;99.90;;;;;;5075067;28;20184;-78
2023/09/01 06:18:54;;;;;;;12.75;10.05;;;12.40;99.90;;;;;;5075000;28;20251;-79
2023/09/01 06:21:20;;;;;;;16.67;10.95;;;12.50;99.90;;;;;;5075069;28;20186;-79
2023/09/01 06:23:47;;;;;;;13.50;9.35;;;12.50;99.90;;;;;;5076241;28;20204;-79
2023/09/01 06:26:13;;;;;;;12.57;10.25;;;12.60;99.90;;;;;;5075097;28;20214;-79
2023/09/01 06:28:42;;;;;;;15.07;9.75;;;12.70;99.90;;;;;;5075138;28;20180;-79
2023/09/01 06:31:12;;;;;;;12.13;10.35;;;12.70;99.90;;;;;;5073898;28;20184;-78
2023/09/01 06:33:42;;;;;;;13.38;10.63;;;12.80;99.90;;;;;;5073916;28;20197;-79
2023/09/01 06:36:13;;;;;;;16.02;11.70;;;12.90;99.90;;;;;;5073996;28;20224;-79
2023/09/01 06:38:40;;;;;;;10.82;9.40;;;13.10;99.90;;;;;;5073899;28;20261;-79
2023/09/01 06:41:06;;;;;;;15.70;10.82;;;13.20;99.90;;;;;;5073547;28;20520;-79
2023/09/01 06:43:32;;;;;;;14.20;11.02;;;13.40;99.90;;;;;;5073461;28;20197;-79
2023/09/01 06:45:58;;;;;;;14.90;11.65;;;13.50;99.90;;;;;;5073212;28;20339;-79
2023/09/01 06:48:24;;;;;;;17.13;10.73;;;13.50;99.90;;;;;;5073505;28;20181;-79
2023/09/01 06:50:50;;;;;;;11.55;9.63;;;13.70;99.90;;;;;;5073748;28;20174;-79
2023/09/01 06:53:15;;;;;;;12.82;11.18;;;13.70;99.90;;;;;;5075017;28;20684;-79
2023/09/01 06:55:41;;;;;;;11.95;9.25;;;13.90;99.90;;;;;;5074467;28;20239;-79
2023/09/01 06:58:08;;;;;;;12.82;9.43;;;14.00;99.90;;;;;;5074925;28;20708;-79
2023/09/01 07:00:33;;;;;;;14.32;9.55;;;14.00;99.90;;;;;;5073582;28;20310;-79
2023/09/01 07:02:59;;;;;;;12.48;8.40;;;14.10;99.90;;;;;;5074628;28;20190;-78
2023/09/01 07:05:25;;;;;;;11.63;8.30;;;14.20;99.90;;;;;;5073184;28;20198;-79
2023/09/01 07:07:52;;;;;;;9.48;7.50;;;14.30;99.90;;;;;;5074550;28;20537;-79
2023/09/01 07:10:19;;;;;;;7.88;6.88;;;14.50;99.90;;;;;;5073272;28;20182;-79
2023/09/01 07:12:44;;;;;;;9.25;7.13;;;14.50;99.90;;;;;;5074210;28;20189;-79
2023/09/01 07:15:11;;;;;;;8.05;6.80;;;14.60;99.90;;;;;;5074068;28;20542;-79
2023/09/01 07:17:36;;;;;;;7.30;6.47;;;14.70;99.90;;;;;;5073039;28;20209;-79
2023/09/01 07:20:05;;;;;;;7.63;6.78;;;14.80;99.90;;;;;;5072826;28;20192;-78
2023/09/01 07:22:31;;;;;;;10.93;7.13;;;14.80;99.90;;;;;;5073901;28;20189;-79
2023/09/01 07:24:57;;;;;;;7.13;6.43;;;14.90;99.90;;;;;;5028829;28;1253597;-79
2023/09/01 07:27:22;;;;;;;7.97;6.68;;;14.80;99.90;;;;;;5075083;28;20546;-78
2023/09/01 07:29:48;;;;;;;7.03;5.50;;;14.80;99.90;;;;;;5076516;28;20701;-79
2023/09/01 07:32:18;;;;;;;7.85;6.22;;;14.90;99.90;;;;;;5076992;28;20229;-79
2023/09/01 07:34:47;;;;;;;9.20;6.15;;;14.90;99.90;;;;;;5076797;28;20370;-80
2023/09/01 07:37:13;;;;;;;6.13;5.53;;;14.90;99.90;;;;;;5076792;28;20673;-80
2023/09/01 07:39:38;;;;;;;9.32;5.80;;;15.00;99.90;;;;;;5079415;28;20177;-80
2023/09/01 07:42:05;;;;;;;10.85;5.55;;;15.00;99.90;;;;;;5079207;28;20193;-79
2023/09/01 07:44:31;;;;;;;6.05;5.07;;;15.00;99.90;;;;;;5077659;28;20178;-80
2023/09/01 07:46:57;;;;;;;6.50;5.10;;;15.00;99.90;;;;;;5077583;28;20205;-80
2023/09/01 07:49:23;;;;;;;9.48;4.95;;;15.00;99.90;;;;;;5077804;28;20217;-80
2023/09/01 07:51:49;;;;;;;7.28;5.10;;;15.10;99.90;;;;;;5076559;28;20174;-79
2023/09/01 07:54:15;;;;;;;7.72;5.68;;;15.20;99.90;;;;;;5079508;28;20169;-80
2023/09/01 07:56:41;;;;;;;5.65;5.15;;;15.20;99.90;;;;;;5079001;28;20239;-79
2023/09/01 07:59:07;;;;;;;6.00;5.07;;;15.30;99.90;;;;;;5078070;28;20174;-80
2023/09/01 08:01:32;;;;;;;6.05;4.82;;;15.30;99.90;;;;;;5079482;28;20207;-80
2023/09/01 08:04:02;;;;;;;6.93;4.72;;;15.40;99.90;;;;;;5077937;28;20251;-80
2023/09/01 08:06:30;;;;;;;6.30;4.65;;;15.60;99.90;;;;;;5078878;28;20305;-79
2023/09/01 08:08:57;;;;;;;4.88;4.38;;;15.70;99.90;;;;;;5078544;28;20630;-80
2023/09/01 08:11:23;;;;;;;4.53;4.05;;;15.80;99.90;;;;;;5078720;28;20174;-79
2023/09/01 08:13:48;;;;;;;5.32;4.28;;;15.90;99.90;;;;;;5078285;28;20243;-80
2023/09/01 08:16:16;;;;;;;3.97;3.50;;;15.90;99.90;;;;;;5075888;28;20194;-79
2023/09/01 08:18:42;;;;;;;4.40;3.58;;;15.90;99.90;;;;;;5075749;28;20622;-79
2023/09/01 08:21:08;;;;;;;4.68;4.05;;;15.90;99.90;;;;;;5073976;28;20178;-79
2023/09/01 08:23:34;;;;;;;4.28;3.67;;;15.90;99.90;;;;;;5073782;28;20200;-79
2023/09/01 08:26:04;;;;;;;4.55;3.80;;;15.90;99.90;;;;;;5075101;28;20631;-79
2023/09/01 08:28:31;;;;;;;4.10;3.60;;;15.90;99.90;;;;;;5074008;28;20234;-79
2023/09/01 08:31:01;;;;;;;3.70;3.40;;;15.90;99.90;;;;;;5073768;28;20265;-79
2023/09/01 08:33:27;;;;;;;4.35;3.47;;;15.80;99.90;;;;;;5073452;28;20537;-79
2023/09/01 08:35:53;;;;;;;3.90;3.60;;;15.90;99.90;;;;;;5073559;28;20184;-79
2023/09/01 08:38:19;;;;;;;4.22;3.53;;;15.90;99.90;;;;;;5074074;28;20694;-79
2023/09/01 08:40:45;;;;;;;4.22;3.63;;;16.00;99.90;;;;;;5073816;28;20211;-78
2023/09/01 08:43:12;;;;;;;4.25;3.85;;;16.10;99.90;;;;;;5075299;28;20198;-79
2023/09/01 08:45:39;;;;;;;4.50;3.42;;;16.10;99.90;;;;;;5075030;28;20198;-79
2023/09/01 08:48:05;;;;;;;3.80;3.25;;;16.20;99.90;;;;;;5073623;28;20641;-79
2023/09/01 08:50:31;;;;;;;3.58;3.28;;;16.30;99.90;;;;;;5074349;28;20273;-79
2023/09/01 08:53:01;;;;;;;3.70;3.40;;;16.30;99.90;;;;;;5074021;28;20193;-79
2023/09/01 08:55:27;;;;;;;3.40;3.10;;;16.30;99.90;;;;;;5073944;28;20186;-78
2023/09/01 08:57:53;;;;;;;3.50;3.20;;;16.40;99.90;;;;;;5072463;28;20181;-79
2023/09/01 09:00:18;;;;;;;3.70;3.40;;;16.40;99.90;;;;;;5072259;28;20260;-79
2023/09/01 09:02:46;;;;;;;4.35;3.25;;;16.40;99.90;;;;;;5072347;28;20201;-79
2023/09/01 09:05:15;;;;;;;3.30;3.00;;;16.50;99.90;;;;;;5075685;28;20178;-79
2023/09/01 09:07:41;;;;;;;3.15;2.95;;;16.60;99.90;;;;;;5078009;28;20771;-79
2023/09/01 09:10:07;;;;;;;3.22;2.92;;;16.60;99.90;;;;;;5076634;28;20177;-80
2023/09/01 09:12:37;;;;;;;3.55;3.25;;;16.60;99.90;;;;;;5078168;28;20205;-78
2023/09/01 09:15:04;;;;;;;3.97;3.20;;;16.60;99.90;;;;;;5077847;28;20177;-80
2023/09/01 09:17:44;;;;;;;2.97;2.78;;;16.60;99.90;;;;;;5076631;28;20184;-80
2023/09/01 09:20:15;;;;;;;2.92;2.72;;;16.50;99.90;;;;;;5077119;28;20238;-79
2023/09/01 09:22:56;;;;;;;3.67;2.90;;;16.40;99.90;;;;;;5078574;28;20189;-79
2023/09/01 09:25:28;;;;;;;4.65;2.92;;;16.40;99.90;;;;;;5076595;28;20698;-79
2023/09/01 09:27:56;;;;;;;3.00;2.80;;;16.30;99.90;;;;;;5076405;28;20181;-78
2023/09/01 09:30:25;;;;;;;4.05;3.00;;;16.30;99.90;;;;;;5077985;28;20168;-80
2023/09/01 09:33:05;;;;;;;2.83;2.63;;;16.30;99.90;;;;;;5076671;28;20193;-79
2023/09/01 09:35:32;;;;;;;3.10;2.90;;;16.30;99.90;;;;;;5076694;28;20192;-79
2023/09/01 09:37:59;;;;;;;2.90;2.70;;;16.30;99.90;;;;;;5076276;28;20206;-79
2023/09/01 09:40:25;;;;;;;3.28;2.97;;;16.20;99.90;;;;;;5076391;28;20543;-79
2023/09/01 09:42:52;;;;;;;4.32;3.00;;;16.20;99.90;;;;;;5075965;28;20198;-78
2023/09/01 09:45:26;;;;;;;3.30;2.95;;;16.10;99.90;;;;;;5076291;28;20654;-79
2023/09/01 09:47:53;;;;;;;3.50;3.20;;;16.20;99.90;;;;;;5076445;28;20173;-79
2023/09/01 09:50:20;;;;;;;3.47;3.20;;;16.10;99.90;;;;;;5076142;28;20174;-78
2023/09/01 09:52:49;;;;;;;3.53;3.22;;;16.10;99.90;;;;;;5077556;28;20189;-79
2023/09/01 09:55:24;;;;;;;3.55;3.10;;;16.10;99.90;;;;;;5076268;28;20272;-78
2023/09/01 09:57:51;;;;;;;3.40;3.10;;;16.10;99.90;;;;;;5077292;28;20154;-79
2023/09/01 10:00:20;;;;;;;3.75;3.13;;;16.10;99.90;;;;;;5075911;28;20169;-79
2023/09/01 10:02:55;;;;;;;3.33;3.08;;;16.00;99.90;;;;;;5075785;28;20201;-80
2023/09/01 10:05:22;;;;;;;3.38;3.08;;;16.00;99.90;;;;;;5076175;28;20252;-79
2023/09/01 10:07:48;;;;;;;4.15;3.28;;;15.90;99.90;;;;;;5075730;28;20177;-80
2023/09/01 10:10:14;;;;;;;5.18;3.50;;;15.90;99.90;;;;;;5076859;28;20201;-80
2023/09/01 10:12:40;;;;;;;7.43;3.50;;;15.80;99.90;;;;;;5076881;28;20189;-79
2023/09/01 10:15:09;;;;;;;5.35;3.00;;;15.80;99.90;;;;;;5077303;28;20303;-79
2023/09/01 10:17:36;;;;;;;4.95;3.78;;;15.80;99.90;;;;;;5076044;28;20231;-79
2023/09/01 10:20:07;;;;;;;3.47;3.17;;;15.80;99.90;;;;;;5077330;28;20661;-80
2023/09/01 10:22:38;;;;;;;5.63;3.75;;;15.70;99.90;;;;;;5079255;28;20201;-79
2023/09/01 10:25:15;;;;;;;3.97;3.60;;;15.70;99.90;;;;;;5079869;28;20212;-79
2023/09/01 10:28:00;;;;;;;3.63;3.33;;;15.70;99.90;;;;;;5080401;28;20182;-79
2023/09/01 10:30:28;;;;;;;4.20;3.67;;;15.60;99.90;;;;;;5080276;28;20185;-79
2023/09/01 10:33:07;;;;;;;4.53;3.55;;;15.60;99.90;;;;;;5078589;28;20193;-79
2023/09/01 10:35:53;;;;;;;4.85;3.70;;;15.60;99.90;;;;;;5079146;28;20170;-80
2023/09/01 10:38:37;;;;;;;3.78;3.47;;;15.50;99.90;;;;;;5079978;28;20162;-79
2023/09/01 10:41:03;;;;;;;4.60;3.38;;;15.50;99.90;;;;;;5079054;28;20169;-78
2023/09/01 10:43:35;;;;;;;3.83;3.53;;;15.40;99.90;;;;;;5079245;28;20273;-79
2023/09/01 10:46:15;;;;;;;4.18;3.40;;;15.40;99.90;;;;;;5078058;28;20202;-79
2023/09/01 10:48:48;;;;;;;4.82;3.65;;;15.40;99.90;;;;;;5076868;28;20239;-79
2023/09/01 10:51:18;;;;;;;6.10;4.03;;;15.40;99.90;;;;;;5075108;28;20178;-79
2023/09/01 10:53:45;;;;;;;3.42;3.03;;;15.40;99.90;;;;;;5076554;28;20801;-79
2023/09/01 10:56:12;;;;;;;3.90;3.50;;;15.40;99.90;;;;;;5075233;28;20184;-78
2023/09/01 10:58:52;;;;;;;6.65;3.50;;;15.40;99.90;;;;;;5076558;28;20547;-79
2023/09/01 11:01:34;;;;;;;3.80;3.50;;;15.40;99.90;;;;;;5076907;28;20249;-79
2023/09/01 11:04:22;;;;;;;4.10;3.55;;;15.40;99.90;;;;;;5075577;28;20623;-79
2023/09/01 11:06:57;;;;;;;4.75;4.22;;;15.40;99.90;;;;;;5075890;28;20210;-80
2023/09/01 11:09:43;;;;;;;4.45;4.05;;;15.40;99.90;;;;;;5075709;28;20177;-79
2023/09/01 11:12:13;;;;;;;5.70;4.20;;;15.50;99.90;;;;;;5075382;28;20197;-78
2023/09/01 11:14:55;;;;;;;5.63;3.67;;;15.50;99.90;;;;;;5075114;28;20196;-79
2023/09/01 11:17:34;;;;;;;3.80;3.40;;;15.60;99.90;;;;;;5073873;28;20177;-79
2023/09/01 11:19:59;;;;;;;3.35;3.13;;;15.70;99.90;;;;;;5073425;28;20181;-76
2023/09/01 11:22:25;;;;;;;3.58;3.28;;;15.70;99.90;;;;;;5073436;28;20580;-76
2023/09/01 11:24:51;;;;;;;5.43;3.78;;;15.80;99.90;;;;;;5073330;28;20178;-76
2023/09/01 11:27:17;;;;;;;4.00;3.30;;;15.90;99.90;;;;;;5072151;28;20220;-76
2023/09/01 11:29:49;;;;;;;3.72;3.42;;;15.90;99.90;;;;;;5073317;28;20545;-76
2023/09/01 11:32:27;;;;;;;3.60;3.30;;;16.00;99.90;;;;;;5073158;28;20251;-76
2023/09/01 11:34:53;;;;;;;3.55;3.25;;;16.10;99.90;;;;;;5074369;28;20192;-76
2023/09/01 11:37:39;;;;;;;4.32;3.53;;;16.20;99.90;;;;;;5073050;28;20182;-76
2023/09/01 11:40:09;;;;;;;3.45;3.15;;;16.30;99.90;;;;;;5074544;28;20154;-76
2023/09/01 11:42:38;;;;;;;3.40;3.10;;;16.40;99.90;;;;;;5074135;28;20331;-76
2023/09/01 11:45:08;;;;;;;3.70;3.40;;;16.50;99.90;;;;;;5073070;28;20230;-76
2023/09/01 11:47:34;;;;;;;3.25;2.90;;;16.60;99.90;;;;;;5072916;28;20366;-76
2023/09/01 11:50:00;;;;;;;3.28;2.97;;;16.60;99.90;;;;;;5074956;28;20217;-76
2023/09/01 11:52:26;;;;;;;2.83;2.58;;;16.60;99.90;;;;;;5072896;28;20586;-76
2023/09/01 11:54:52;;;;;;;3.03;2.53;;;16.70;99.90;;;;;;5072785;28;20212;-76
2023/09/01 11:57:20;;;;;;;2.72;2.50;;;16.70;99.90;;;;;;5072624;28;20181;-76
2023/09/01 11:59:49;;;;;;;3.40;2.67;;;16.70;99.90;;;;;;5072718;28;20186;-76
2023/09/01 12:02:17;;;;;;;3.22;2.50;;;16.80;99.90;;;;;;5074017;28;20190;-76
2023/09/01 12:04:50;;;;;;;4.75;2.90;;;16.80;99.90;;;;;;5072984;28;20178;-76
2023/09/01 12:07:28;;;;;;;2.83;2.60;;;16.90;99.90;;;;;;5073983;28;20189;-76
2023/09/01 12:09:55;;;;;;;2.50;2.30;;;16.90;99.90;;;;;;5072660;28;20177;-76
2023/09/01 12:12:21;;;;;;;2.50;2.30;;;16.90;99.90;;;;;;5072717;28;20251;-77
2023/09/01 12:14:48;;;;;;;2.47;2.28;;;16.90;99.90;;;;;;5072912;28;20182;-76
2023/09/01 12:17:23;;;;;;;2.40;2.20;;;16.90;99.90;;;;;;5073095;28;20641;-76
2023/09/01 12:19:51;;;;;;;2.60;2.40;;;17.00;99.90;;;;;;5073258;28;20181;-77
2023/09/01 12:22:18;;;;;;;3.08;2.50;;;17.00;99.90;;;;;;5072877;28;20205;-77
2023/09/01 12:24:55;;;;;;;2.53;2.38;;;17.00;99.90;;;;;;5072843;28;20182;-77
2023/09/01 12:27:21;;;;;;;2.50;2.30;;;17.10;99.90;;;;;;5076371;28;20692;-79
2023/09/01 12:29:48;;;;;;;2.58;2.38;;;17.10;99.90;;;;;;5077833;28;20621;-80
2023/09/01 12:32:15;;;;;;;2.30;2.20;;;17.10;99.90;;;;;;5078910;28;20194;-79
2023/09/01 12:34:45;;;;;;;2.70;2.50;;;17.20;99.90;;;;;;5079493;28;20200;-79
2023/09/01 12:37:11;;;;;;;2.78;2.58;;;17.20;99.90;;;;;;5077696;28;20178;-80
2023/09/01 12:39:38;;;;;;;3.72;2.75;;;17.30;99.90;;;;;;5078793;28;20174;-80